createdAt,value
2022-09-26T00:00:43.867Z,17.07
2022-09-26T00:03:17.459Z,16.07
2022-09-26T00:05:48.944Z,16.63
2022-09-26T00:08:20.330Z,16.07
2022-09-26T00:11:04.461Z,18.00
2022-09-26T00:13:41.337Z,14.17
2022-09-26T00:16:19.208Z,13.20
2022-09-26T00:18:53.333Z,13.40
2022-09-26T00:21:26.993Z,14.40
2022-09-26T00:23:59.699Z,11.23
2022-09-26T00:26:33.269Z,12.40
2022-09-26T00:29:08.800Z,12.23
2022-09-26T00:31:46.029Z,13.80
2022-09-26T00:34:20.278Z,11.67
2022-09-26T00:36:55.523Z,12.23
2022-09-26T00:39:27.827Z,15.10
2022-09-26T00:41:59.401Z,11.70
2022-09-26T00:44:49.947Z,10.37
2022-09-26T00:47:39.981Z,11.93
2022-09-26T01:25:08.682Z,10.57
2022-09-26T01:28:07.747Z,11.30
2022-09-26T01:30:46.828Z,9.70
2022-09-26T01:33:53.090Z,11.10
2022-09-26T01:42:09.345Z,8.47
2022-09-26T01:44:45.661Z,8.97
2022-09-26T01:47:25.517Z,10.23
2022-09-26T01:50:03.319Z,9.80
2022-09-26T01:52:40.853Z,8.47
2022-09-26T01:55:15.696Z,9.07
2022-09-26T01:57:51.631Z,8.60
2022-09-26T02:00:23.513Z,12.37
2022-09-26T02:02:58.296Z,8.67
2022-09-26T02:05:35.548Z,10.30
2022-09-26T02:08:13.906Z,8.20
2022-09-26T02:10:50.232Z,8.80
2022-09-26T02:13:24.450Z,10.53
2022-09-26T02:15:59.848Z,8.20
2022-09-26T02:18:37.474Z,11.30
2022-09-26T02:21:15.557Z,10.70
2022-09-26T02:23:47.709Z,9.23
2022-09-26T02:26:20.124Z,9.97
2022-09-26T02:28:52.275Z,9.60
2022-09-26T02:31:29.601Z,8.87
2022-09-26T02:34:03.344Z,13.30
2022-09-26T02:36:34.909Z,12.10
2022-09-26T02:39:07.037Z,8.50
2022-09-26T02:41:49.137Z,12.63
2022-09-26T02:44:48.489Z,7.93
2022-09-26T02:47:40.811Z,10.27
2022-09-26T02:50:25.464Z,10.97
2022-09-26T02:53:09.094Z,14.53
2022-09-26T02:55:49.774Z,7.87
2022-09-26T02:58:28.904Z,9.70
2022-09-26T03:01:06.907Z,6.83
2022-09-26T03:03:42.305Z,8.40
2022-09-26T03:06:19.817Z,7.83
2022-09-26T03:08:54.390Z,8.87
2022-09-26T03:11:28.615Z,9.63
2022-09-26T03:14:01.041Z,7.97
2022-09-26T03:16:39.440Z,8.00
2022-09-26T03:19:14.405Z,9.83
2022-09-26T03:21:47.715Z,9.13
2022-09-26T03:24:19.524Z,6.87
2022-09-26T03:26:52.678Z,6.73
2022-09-26T03:29:24.755Z,7.57
2022-09-26T03:31:55.941Z,6.07
2022-09-26T03:34:27.473Z,4.40
2022-09-26T03:37:00.701Z,5.97
2022-09-26T03:39:31.775Z,6.47
2022-09-26T03:42:03.388Z,6.37
2022-09-26T03:44:34.649Z,8.63
2022-09-26T03:47:06.204Z,4.90
2022-09-26T03:49:37.429Z,6.17
2022-09-26T03:52:13.653Z,5.47
2022-09-26T03:54:45.207Z,5.03
2022-09-26T03:57:16.405Z,4.60
2022-09-26T03:59:48.077Z,8.53
2022-09-26T04:02:20.841Z,5.53
2022-09-26T04:04:52.354Z,7.70
2022-09-26T04:07:25.912Z,7.57
2022-09-26T04:09:58.545Z,7.23
2022-09-26T04:12:30.238Z,6.57
2022-09-26T04:15:02.118Z,5.90
2022-09-26T04:17:33.313Z,5.17
2022-09-26T04:20:04.828Z,7.50
2022-09-26T04:22:42.976Z,8.27
2022-09-26T04:25:14.196Z,4.77
2022-09-26T04:27:45.326Z,5.67
2022-09-26T04:30:17.146Z,4.57
2022-09-26T04:32:48.578Z,4.37
2022-09-26T04:35:19.699Z,5.23
2022-09-26T04:37:55.488Z,8.83
2022-09-26T04:40:27.289Z,4.67
2022-09-26T04:42:59.152Z,5.43
2022-09-26T04:45:30.297Z,5.00
2022-09-26T04:48:01.073Z,4.20
2022-09-26T04:50:32.741Z,5.60
2022-09-26T04:53:07.366Z,7.10
2022-09-26T04:55:39.229Z,6.77
2022-09-26T04:58:10.320Z,6.63
2022-09-26T05:00:46.497Z,6.27
2022-09-26T05:03:18.609Z,6.60
2022-09-26T05:05:52.133Z,6.53
2022-09-26T05:08:26.155Z,6.13
2022-09-26T05:10:58.357Z,5.90
2022-09-26T05:13:29.807Z,12.60
2022-09-26T05:16:03.035Z,14.17
2022-09-26T05:18:34.706Z,12.87
2022-09-26T05:21:07.608Z,6.77
2022-09-26T05:23:58.102Z,5.13
2022-09-26T05:26:35.727Z,6.87
2022-09-26T05:29:08.767Z,8.30
2022-09-26T05:31:40.870Z,7.37
2022-09-26T05:34:19.591Z,5.50
2022-09-26T05:36:52.789Z,5.67
2022-09-26T05:39:42.848Z,5.77
2022-09-26T05:42:13.955Z,4.00
2022-09-26T05:44:45.248Z,5.77
2022-09-26T05:47:16.240Z,4.50
2022-09-26T05:49:47.580Z,4.60
2022-09-26T05:52:19.817Z,6.40
2022-09-26T05:54:53.344Z,6.60
2022-09-26T05:57:24.229Z,13.03
2022-09-26T05:59:55.257Z,3.43
2022-09-26T06:02:26.328Z,3.93
2022-09-26T06:04:57.411Z,3.87
2022-09-26T06:07:28.459Z,6.10
2022-09-26T06:10:01.878Z,3.87
2022-09-26T06:12:32.975Z,4.97
2022-09-26T06:15:04.962Z,4.13
2022-09-26T06:17:36.028Z,5.27
2022-09-26T06:20:10.937Z,3.10
2022-09-26T06:22:45.713Z,4.10
2022-09-26T06:25:18.821Z,4.07
2022-09-26T06:27:50.857Z,5.00
2022-09-26T06:30:24.480Z,3.67
2022-09-26T06:32:56.508Z,4.73
2022-09-26T06:35:28.790Z,4.53
2022-09-26T06:38:01.979Z,5.50
2022-09-26T06:40:35.824Z,6.83
2022-09-26T06:43:07.481Z,4.27
2022-09-26T06:45:38.538Z,3.20
2022-09-26T06:48:09.968Z,3.37
2022-09-26T06:50:41.789Z,3.57
2022-09-26T06:53:12.970Z,4.40
2022-09-26T06:55:47.158Z,4.23
2022-09-26T06:58:18.329Z,3.57
2022-09-26T07:00:49.705Z,5.63
2022-09-26T07:03:22.268Z,3.67
2022-09-26T07:05:53.741Z,3.90
2022-09-26T07:08:50.015Z,3.20
2022-09-26T07:14:10.334Z,5.07
2022-09-26T07:16:41.922Z,3.73
2022-09-26T07:19:15.112Z,4.50
2022-09-26T07:21:46.061Z,7.63
2022-09-26T07:24:19.655Z,6.73
2022-09-26T07:26:53.363Z,3.73
2022-09-26T07:29:23.949Z,2.87
2022-09-26T07:31:55.026Z,4.70
2022-09-26T07:34:26.834Z,3.20
2022-09-26T07:36:58.108Z,3.63
2022-09-26T07:39:30.251Z,3.33
2022-09-26T07:42:04.165Z,2.97
2022-09-26T07:47:42.939Z,4.87
2022-09-26T07:50:17.506Z,4.93
2022-09-26T07:52:50.179Z,4.73
2022-09-26T07:55:23.618Z,3.57
2022-09-26T07:57:56.849Z,3.87
2022-09-26T08:00:31.217Z,4.03
2022-09-26T08:03:05.745Z,3.13
2022-09-26T08:05:37.457Z,3.67
2022-09-26T08:08:08.619Z,4.20
2022-09-26T08:10:39.710Z,3.40
2022-09-26T08:13:12.877Z,3.70
2022-09-26T08:15:43.972Z,7.50
2022-09-26T08:18:14.565Z,3.30
2022-09-26T08:20:49.005Z,3.80
2022-09-26T08:23:21.408Z,3.53
2022-09-26T08:25:52.941Z,3.20
2022-09-26T08:28:27.878Z,3.63
2022-09-26T08:31:06.333Z,6.80
2022-09-26T08:33:39.546Z,3.27
2022-09-26T08:36:12.281Z,3.83
2022-09-26T08:38:43.637Z,3.43
2022-09-26T08:41:33.685Z,3.33
2022-09-26T08:44:24.781Z,4.63
2022-09-26T08:47:02.206Z,3.47
2022-09-26T08:49:51.716Z,4.97
2022-09-26T08:52:31.646Z,4.13
2022-09-26T08:55:05.733Z,3.60
2022-09-26T08:57:41.534Z,3.30
2022-09-26T09:00:23.429Z,3.87
2022-09-26T09:03:14.122Z,3.43
2022-09-26T09:05:49.640Z,5.53
2022-09-26T09:08:24.198Z,7.77
2022-09-26T09:11:04.832Z,3.83
2022-09-26T09:13:51.570Z,3.77
2022-09-26T09:16:52.454Z,3.93
2022-09-26T09:19:35.899Z,4.37
2022-09-26T09:22:23.729Z,3.17
2022-09-26T09:25:02.461Z,3.37
2022-09-26T09:27:54.047Z,4.23
2022-09-26T09:30:31.785Z,5.27
2022-09-26T09:33:12.132Z,3.90
2022-09-26T09:35:46.977Z,5.13
2022-09-26T09:38:22.169Z,3.67
2022-09-26T09:40:57.951Z,4.43
2022-09-26T09:43:38.213Z,4.87
2022-09-26T09:46:18.396Z,3.50
2022-09-26T09:48:54.166Z,3.33
2022-09-26T09:51:40.690Z,4.60
2022-09-26T09:54:38.263Z,5.10
2022-09-26T09:57:38.060Z,5.23
2022-09-26T10:00:14.907Z,4.00
2022-09-26T10:02:55.851Z,3.90
2022-09-26T10:05:39.600Z,4.43
2022-09-26T10:08:16.045Z,4.33
2022-09-26T10:10:55.629Z,4.37
2022-09-26T10:13:28.709Z,4.57
2022-09-26T10:16:04.864Z,5.63
2022-09-26T10:18:36.270Z,3.57
2022-09-26T10:21:14.421Z,3.50
2022-09-26T10:23:50.553Z,3.77
2022-09-26T10:26:36.713Z,5.77
2022-09-26T10:29:10.714Z,4.70
2022-09-26T10:31:43.633Z,4.63
2022-09-26T10:34:29.119Z,3.97
2022-09-26T10:37:20.922Z,3.67
2022-09-26T10:40:13.146Z,7.17
2022-09-26T10:42:48.183Z,5.40
2022-09-26T10:45:21.350Z,3.93
2022-09-26T10:47:54.943Z,3.60
2022-09-26T10:50:30.243Z,4.70
2022-09-26T10:53:09.873Z,4.10
2022-09-26T10:55:47.436Z,5.03
2022-09-26T10:58:25.352Z,3.97
2022-09-26T11:00:58.308Z,4.03
2022-09-26T11:03:37.172Z,3.87
2022-09-26T11:06:08.264Z,4.17
2022-09-26T11:08:43.341Z,4.73
2022-09-26T11:11:24.573Z,6.60
2022-09-26T11:14:05.435Z,6.10
2022-09-26T11:16:56.025Z,6.17
2022-09-26T11:19:40.179Z,3.50
2022-09-26T11:22:21.077Z,4.07
2022-09-26T11:25:01.686Z,4.30
2022-09-26T11:27:44.269Z,5.63
2022-09-26T11:30:20.108Z,5.63
2022-09-26T11:32:53.285Z,4.60
2022-09-26T11:35:34.674Z,3.67
2022-09-26T11:38:17.860Z,4.13
2022-09-26T11:41:02.753Z,3.63
2022-09-26T11:43:49.982Z,5.37
2022-09-26T11:46:48.090Z,4.77
2022-09-26T11:50:00.045Z,3.87
2022-09-26T11:52:49.417Z,5.57
2022-09-26T11:55:32.567Z,4.13
2022-09-26T11:58:17.088Z,4.43
2022-09-26T12:00:58.901Z,4.57
2022-09-26T12:04:07.434Z,4.87
2022-09-26T12:06:43.480Z,5.27
2022-09-26T12:09:39.657Z,4.30
2022-09-26T12:12:19.044Z,4.00
2022-09-26T12:15:10.634Z,5.00
2022-09-26T12:17:55.252Z,5.60
2022-09-26T12:20:39.421Z,5.03
2022-09-26T12:23:23.434Z,5.67
2022-09-26T12:26:14.774Z,4.80
2022-09-26T12:29:01.539Z,4.87
2022-09-26T12:31:46.723Z,5.10
2022-09-26T12:34:38.208Z,4.17
2022-09-26T12:37:21.032Z,6.23
2022-09-26T12:40:06.512Z,4.27
2022-09-26T12:42:54.905Z,4.73
2022-09-26T12:45:53.314Z,6.13
2022-09-26T12:48:52.532Z,4.53
2022-09-26T12:51:34.395Z,5.87
2022-09-26T12:54:36.039Z,6.27
2022-09-26T12:57:18.143Z,6.63
2022-09-26T13:00:15.252Z,5.30
2022-09-26T13:03:26.520Z,8.50
2022-09-26T13:06:24.098Z,5.30
2022-09-26T13:09:04.716Z,8.13
2022-09-26T13:11:49.179Z,5.10
2022-09-26T13:15:00.346Z,6.67
2022-09-26T13:17:38.510Z,4.33
2022-09-26T13:20:18.277Z,4.10
2022-09-26T13:22:56.091Z,5.43
2022-09-26T13:25:36.976Z,4.63
2022-09-26T13:28:13.956Z,5.87
2022-09-26T13:30:50.657Z,5.03
2022-09-26T13:33:32.362Z,4.80
2022-09-26T13:36:05.507Z,5.87
2022-09-26T13:38:48.266Z,7.93
2022-09-26T13:41:37.248Z,5.90
2022-09-26T13:44:29.227Z,13.57
2022-09-26T13:47:20.982Z,5.63
2022-09-26T13:49:59.605Z,7.10
2022-09-26T13:52:43.733Z,5.67
2022-09-26T13:55:21.359Z,5.63
2022-09-26T13:58:07.831Z,6.97
2022-09-26T14:00:50.660Z,5.40
2022-09-26T14:03:51.871Z,6.80
2022-09-26T14:06:36.265Z,7.77
2022-09-26T14:09:29.546Z,6.60
2022-09-26T14:12:37.626Z,7.00
2022-09-26T14:15:23.794Z,9.93
2022-09-26T14:18:10.651Z,6.30
2022-09-26T14:21:17.441Z,9.63
2022-09-26T14:23:49.622Z,6.90
2022-09-26T14:26:24.970Z,7.23
2022-09-26T14:28:59.009Z,5.90
2022-09-26T14:32:02.902Z,6.13
2022-09-26T14:34:39.257Z,6.23
2022-09-26T14:37:33.101Z,6.80
2022-09-26T14:40:36.449Z,5.90
2022-09-26T14:43:24.592Z,5.63
2022-09-26T14:46:06.254Z,6.30
2022-09-26T14:48:40.464Z,7.37
2022-09-26T14:51:28.266Z,8.47
2022-09-26T14:54:02.854Z,7.63
2022-09-26T14:56:41.956Z,6.73
2022-09-26T14:59:40.940Z,5.60
2022-09-26T15:02:27.718Z,8.13
2022-09-26T15:05:09.019Z,8.10
2022-09-26T15:07:47.049Z,7.63
2022-09-26T15:10:25.389Z,7.33
2022-09-26T15:13:04.900Z,6.40
2022-09-26T15:15:55.518Z,8.00
2022-09-26T15:18:38.135Z,7.67
2022-09-26T15:21:28.321Z,6.90
2022-09-26T15:24:00.677Z,7.23
2022-09-26T15:26:36.327Z,9.03
2022-09-26T15:29:10.961Z,8.17
2022-09-26T15:31:43.631Z,7.70
2022-09-26T15:34:20.096Z,9.20
2022-09-26T15:36:59.873Z,7.67
2022-09-26T15:39:45.058Z,7.43
2022-09-26T15:42:48.925Z,8.80
2022-09-26T15:45:31.114Z,7.23
2022-09-26T15:48:04.393Z,6.80
2022-09-26T15:50:51.717Z,7.57
2022-09-26T15:53:29.096Z,7.90
2022-09-26T15:56:03.592Z,9.43
2022-09-26T15:58:41.617Z,11.70
2022-09-26T16:01:17.522Z,16.57
2022-09-26T16:03:58.009Z,19.67
2022-09-26T16:06:36.836Z,18.27
2022-09-26T16:09:19.051Z,17.73
2022-09-26T16:11:54.806Z,18.57
2022-09-26T16:14:41.352Z,17.20
2022-09-26T16:17:24.638Z,22.40
2022-09-26T16:19:57.655Z,20.50
2022-09-26T16:22:52.537Z,19.07
2022-09-26T16:25:26.763Z,25.13
2022-09-26T16:28:20.054Z,27.80
2022-09-26T16:31:16.547Z,24.97
2022-09-26T16:33:54.239Z,22.87
2022-09-26T16:36:27.495Z,24.20
2022-09-26T16:39:06.868Z,25.77
2022-09-26T16:42:02.690Z,26.60
2022-09-26T16:44:39.828Z,23.47
2022-09-26T16:47:35.161Z,33.70
2022-09-26T16:50:30.379Z,36.23
2022-09-26T16:53:05.613Z,34.13
2022-09-26T16:55:39.547Z,35.57
2022-09-26T16:58:15.178Z,46.30
2022-09-26T17:01:02.679Z,34.37
2022-09-26T17:03:36.099Z,32.43
2022-09-26T17:06:08.365Z,38.13
2022-09-26T17:08:39.408Z,37.30
2022-09-26T17:11:18.796Z,51.30
2022-09-26T17:13:52.916Z,43.70
2022-09-26T17:16:24.148Z,42.97
2022-09-26T17:18:55.426Z,40.10
2022-09-26T17:21:26.965Z,36.20
2022-09-26T17:23:58.203Z,35.83
2022-09-26T17:26:32.589Z,35.70
2022-09-26T17:29:04.567Z,34.33
2022-09-26T17:31:35.669Z,30.20
2022-09-26T17:34:07.217Z,30.40
2022-09-26T17:36:40.137Z,26.07
2022-09-26T17:39:15.767Z,29.97
2022-09-26T17:41:49.318Z,30.43
2022-09-26T17:44:20.745Z,27.17
2022-09-26T17:46:56.603Z,26.60
2022-09-26T17:49:31.463Z,28.10
2022-09-26T17:52:04.255Z,22.57
2022-09-26T17:54:44.349Z,22.63
2022-09-26T17:57:21.712Z,22.60
2022-09-26T17:59:56.419Z,27.93
2022-09-26T18:02:32.888Z,24.50
2022-09-26T18:05:06.152Z,24.20
2022-09-26T18:07:40.472Z,22.70
2022-09-26T18:10:20.451Z,21.23
2022-09-26T18:12:58.783Z,19.17
2022-09-26T18:15:30.843Z,19.43
2022-09-26T18:18:03.304Z,19.50
2022-09-26T18:20:41.231Z,20.77
2022-09-26T18:23:20.156Z,19.87
2022-09-26T18:25:55.502Z,23.20
2022-09-26T18:28:29.149Z,22.90
2022-09-26T18:31:02.113Z,21.63
2022-09-26T18:33:37.762Z,23.13
2022-09-26T18:36:14.197Z,26.20
2022-09-26T18:38:46.121Z,24.03
2022-09-26T18:41:19.587Z,26.50
2022-09-26T18:43:54.450Z,23.03
2022-09-26T18:46:26.319Z,25.90
2022-09-26T18:49:00.881Z,33.50
2022-09-26T18:51:32.639Z,19.10
2022-09-26T18:54:10.704Z,17.80
2022-09-26T18:56:59.660Z,15.23
2022-09-26T18:59:33.381Z,16.33
2022-09-26T19:02:06.295Z,18.40
2022-09-26T19:04:39.543Z,16.47
2022-09-26T19:07:10.640Z,19.27
2022-09-26T19:09:43.454Z,17.57
2022-09-26T19:12:16.349Z,17.57
2022-09-26T19:14:49.297Z,17.23
2022-09-26T19:17:20.330Z,18.30
2022-09-26T19:19:51.318Z,20.10
2022-09-26T19:22:23.028Z,15.27
2022-09-26T19:24:57.752Z,16.90
2022-09-26T19:27:31.045Z,15.47
2022-09-26T19:30:06.558Z,21.43
2022-09-26T19:32:41.918Z,17.23
2022-09-26T19:35:26.136Z,18.43
2022-09-26T19:37:57.250Z,21.87
2022-09-26T19:40:29.672Z,18.60
2022-09-26T19:43:00.585Z,21.67
2022-09-26T19:45:36.473Z,19.47
2022-09-26T19:48:09.032Z,26.47
2022-09-26T19:50:43.553Z,21.00
2022-09-26T19:53:17.550Z,22.20
2022-09-26T19:55:51.201Z,23.07
2022-09-26T19:58:23.782Z,20.27
2022-09-26T20:00:58.854Z,21.17
2022-09-26T20:03:35.554Z,26.73
2022-09-26T20:06:13.975Z,21.83
2022-09-26T20:08:45.130Z,22.47
2022-09-26T20:11:17.506Z,22.03
2022-09-26T20:14:05.221Z,23.73
2022-09-26T20:16:43.780Z,28.57
2022-09-26T20:19:23.825Z,29.47
2022-09-26T20:21:55.244Z,24.03
2022-09-26T20:24:26.371Z,26.70
2022-09-26T20:26:57.880Z,28.03
2022-09-26T20:29:29.132Z,25.30
2022-09-26T20:32:06.466Z,24.17
2022-09-26T20:34:37.521Z,29.67
2022-09-26T20:37:09.556Z,25.50
2022-09-26T20:39:41.934Z,27.07
2022-09-26T20:42:19.640Z,26.97
2022-09-26T20:44:52.370Z,26.73
2022-09-26T20:47:26.108Z,19.80
2022-09-26T20:50:02.312Z,18.97
2022-09-26T20:52:34.080Z,21.23
2022-09-26T20:55:05.229Z,16.23
2022-09-26T20:57:39.389Z,17.70
2022-09-26T21:00:13.178Z,17.33
2022-09-26T21:02:47.489Z,19.60
2022-09-26T21:05:20.602Z,20.53
2022-09-26T21:07:52.909Z,16.73
2022-09-26T21:10:29.334Z,18.50
2022-09-26T21:13:00.690Z,17.37
2022-09-26T21:15:33.157Z,15.03
2022-09-26T21:18:06.262Z,14.23
2022-09-26T21:20:38.160Z,16.80
2022-09-26T21:23:11.980Z,13.80
2022-09-26T21:25:43.085Z,13.63
2022-09-26T21:28:28.504Z,14.33
2022-09-26T21:31:02.003Z,17.40
2022-09-26T21:33:35.226Z,14.60
2022-09-26T21:36:06.360Z,14.03
2022-09-26T21:38:37.309Z,12.90
2022-09-26T21:41:08.518Z,11.00
2022-09-26T21:43:44.823Z,10.57
2022-09-26T21:46:15.842Z,10.63
2022-09-26T21:48:49.010Z,10.60
2022-09-26T21:51:20.374Z,10.37
2022-09-26T21:53:57.511Z,8.80
2022-09-26T21:56:31.781Z,11.30
2022-09-26T21:59:03.155Z,10.10
2022-09-26T22:01:34.235Z,11.50
2022-09-26T22:04:08.328Z,11.80
2022-09-26T22:06:39.781Z,11.43
2022-09-26T22:09:11.355Z,10.13
2022-09-26T22:11:42.112Z,11.13
2022-09-26T22:14:14.080Z,9.23
2022-09-26T22:16:45.460Z,9.17
2022-09-26T22:19:18.729Z,8.15
2022-09-26T22:21:50.013Z,8.30
2022-09-26T22:24:21.092Z,9.27
2022-09-26T22:26:52.974Z,8.83
2022-09-26T22:29:24.070Z,9.68
2022-09-26T22:31:55.086Z,8.48
2022-09-26T22:34:28.495Z,8.88
2022-09-26T22:36:59.694Z,8.57
2022-09-26T22:39:30.197Z,14.00
2022-09-26T22:42:00.653Z,7.38
2022-09-26T22:44:31.818Z,7.95
2022-09-26T22:47:02.325Z,9.60
2022-09-26T22:49:34.719Z,8.05
2022-09-26T22:52:05.695Z,9.90
2022-09-26T22:54:36.723Z,11.45
2022-09-26T22:57:07.813Z,12.23
2022-09-26T22:59:39.499Z,13.43
2022-09-26T23:02:10.370Z,12.30
2022-09-26T23:04:51.634Z,11.90
2022-09-26T23:07:23.493Z,14.98
2022-09-26T23:09:54.439Z,14.02
2022-09-26T23:12:25.099Z,17.45
2022-09-26T23:14:56.150Z,16.35
2022-09-26T23:17:27.189Z,16.05
2022-09-26T23:20:00.278Z,18.27
2022-09-26T23:22:31.335Z,15.10
2022-09-26T23:25:02.680Z,14.87
2022-09-26T23:27:35.065Z,15.70
2022-09-26T23:30:06.492Z,17.73
2022-09-26T23:32:37.696Z,16.03
2022-09-26T23:35:12.332Z,15.18
2022-09-26T23:37:43.583Z,16.53
2022-09-26T23:40:15.006Z,16.40
2022-09-26T23:42:47.979Z,16.47
2022-09-26T23:45:19.912Z,16.83
2022-09-26T23:47:51.245Z,16.97
2022-09-26T23:50:24.603Z,19.67
2022-09-26T23:52:55.700Z,17.43
2022-09-26T23:55:27.222Z,16.23
2022-09-26T23:58:00.635Z,17.63
